createdAt,value
2022-08-24T00:03:00.480Z,19.41
2022-08-24T00:06:03.859Z,19.36
2022-08-24T00:09:07.851Z,19.34
2022-08-24T00:12:10.565Z,19.39
2022-08-24T00:15:16.636Z,19.29
2022-08-24T00:18:19.761Z,19.21
2022-08-24T00:21:22.772Z,19.13
2022-08-24T00:24:27.480Z,19.03
2022-08-24T00:27:30.228Z,18.98
2022-08-24T00:30:33.796Z,18.97
2022-08-24T00:33:36.691Z,18.86
2022-08-24T00:36:39.218Z,18.86
2022-08-24T00:39:43.595Z,18.90
2022-08-24T00:42:46.326Z,18.86
2022-08-24T00:45:51.456Z,18.78
2022-08-24T00:49:00.636Z,18.75
2022-08-24T00:52:07.339Z,18.75
2022-08-24T00:55:15.645Z,18.68
2022-08-24T00:58:22.175Z,18.72
2022-08-24T01:01:24.787Z,18.70
2022-08-24T01:04:32.347Z,18.64
2022-08-24T01:07:39.417Z,18.49
2022-08-24T01:10:45.392Z,18.41
2022-08-24T01:13:50.241Z,18.39
2022-08-24T01:17:10.497Z,18.37
2022-08-24T01:20:14.357Z,18.35
2022-08-24T01:23:30.185Z,18.36
2022-08-24T01:26:42.355Z,18.36
2022-08-24T01:29:46.128Z,18.29
2022-08-24T01:32:57.141Z,18.21
2022-08-24T01:36:02.905Z,18.12
2022-08-24T01:39:11.614Z,18.21
2022-08-24T01:42:14.754Z,18.13
2022-08-24T01:45:20.144Z,18.12
2022-08-24T01:48:23.366Z,18.12
2022-08-24T01:51:25.893Z,18.07
2022-08-24T01:54:31.406Z,18.00
2022-08-24T01:57:33.995Z,17.97
2022-08-24T02:00:37.610Z,17.93
2022-08-24T02:03:40.355Z,17.91
2022-08-24T02:06:44.556Z,17.80
2022-08-24T02:09:48.661Z,17.72
2022-08-24T02:12:58.000Z,17.64
2022-08-24T02:16:01.077Z,17.61
2022-08-24T02:19:03.975Z,17.55
2022-08-24T02:22:07.331Z,17.66
2022-08-24T02:25:11.539Z,17.63
2022-08-24T02:28:17.203Z,17.70
2022-08-24T02:31:19.832Z,17.68
2022-08-24T02:34:22.560Z,17.74
2022-08-24T02:37:25.351Z,17.75
2022-08-24T02:40:29.953Z,17.63
2022-08-24T02:43:32.806Z,17.55
2022-08-24T02:46:41.319Z,17.57
2022-08-24T02:49:43.977Z,17.53
2022-08-24T02:52:46.913Z,17.51
2022-08-24T02:55:51.411Z,17.45
2022-08-24T02:58:54.486Z,17.36
2022-08-24T03:01:57.811Z,17.29
2022-08-24T03:05:00.413Z,17.22
2022-08-24T03:08:03.183Z,17.22
2022-08-24T03:11:08.341Z,17.25
2022-08-24T03:14:11.629Z,17.29
2022-08-24T03:17:14.207Z,17.23
2022-08-24T03:20:19.257Z,17.14
2022-08-24T03:23:23.585Z,17.02
2022-08-24T03:26:27.474Z,17.02
2022-08-24T03:29:33.750Z,17.03
2022-08-24T03:32:36.603Z,17.03
2022-08-24T03:35:39.709Z,17.05
2022-08-24T03:38:42.758Z,17.04
2022-08-24T03:41:46.821Z,17.02
2022-08-24T03:44:49.513Z,16.96
2022-08-24T03:47:52.507Z,16.91
2022-08-24T03:50:55.276Z,16.94
2022-08-24T03:53:59.684Z,16.88
2022-08-24T03:57:03.794Z,16.80
2022-08-24T04:00:09.902Z,16.81
2022-08-24T04:03:13.374Z,16.79
2022-08-24T04:06:17.818Z,16.78
2022-08-24T04:09:21.080Z,16.81
2022-08-24T04:12:25.129Z,16.78
2022-08-24T04:15:28.159Z,16.78
2022-08-24T04:18:30.761Z,16.82
2022-08-24T04:21:35.686Z,16.81
2022-08-24T04:24:38.416Z,16.77
2022-08-24T04:27:42.604Z,16.78
2022-08-24T04:30:47.608Z,16.81
2022-08-24T04:33:54.044Z,16.75
2022-08-24T04:36:56.813Z,16.76
2022-08-24T04:39:59.946Z,16.79
2022-08-24T04:43:04.104Z,16.87
2022-08-24T04:46:08.500Z,16.96
2022-08-24T04:49:11.653Z,17.07
2022-08-24T04:52:14.511Z,17.10
2022-08-24T04:55:17.603Z,17.16
2022-08-24T04:58:21.845Z,17.23
2022-08-24T05:01:26.454Z,17.27
2022-08-24T05:04:29.122Z,17.35
2022-08-24T05:07:33.993Z,17.48
2022-08-24T05:10:38.831Z,17.55
2022-08-24T05:13:42.830Z,17.72
2022-08-24T05:16:45.751Z,17.83
2022-08-24T05:19:56.297Z,17.98
2022-08-24T05:23:02.495Z,18.09
2022-08-24T05:26:08.713Z,18.20
2022-08-24T05:29:12.760Z,18.31
2022-08-24T05:32:18.100Z,18.44
2022-08-24T05:35:21.738Z,18.63
2022-08-24T05:38:25.097Z,18.75
2022-08-24T05:41:27.539Z,18.92
2022-08-24T05:44:31.869Z,19.07
2022-08-24T05:47:35.511Z,19.19
2022-08-24T05:50:38.116Z,19.27
2022-08-24T05:53:41.353Z,19.39
2022-08-24T05:56:44.697Z,19.42
2022-08-24T05:59:49.036Z,19.53
2022-08-24T06:02:52.827Z,19.69
2022-08-24T06:05:56.041Z,19.86
2022-08-24T06:09:01.698Z,20.01
2022-08-24T06:12:05.607Z,20.13
2022-08-24T06:15:11.504Z,20.24
2022-08-24T06:18:14.235Z,20.32
2022-08-24T06:21:22.022Z,20.32
2022-08-24T06:24:45.250Z,20.36
2022-08-24T06:27:47.027Z,20.43
2022-08-24T06:30:51.029Z,20.45
2022-08-24T06:33:53.910Z,20.61
2022-08-24T06:36:56.601Z,20.78
2022-08-24T06:40:00.083Z,20.88
2022-08-24T06:43:03.335Z,21.05
2022-08-24T06:46:08.470Z,21.24
2022-08-24T06:49:11.892Z,21.38
2022-08-24T06:52:14.494Z,21.51
2022-08-24T06:55:17.226Z,21.76
2022-08-24T06:58:20.457Z,21.91
2022-08-24T07:01:26.075Z,22.00
2022-08-24T07:04:29.214Z,22.12
2022-08-24T07:07:31.638Z,22.42
2022-08-24T07:10:34.744Z,22.64
2022-08-24T07:13:37.450Z,22.75
2022-08-24T07:16:41.535Z,23.02
2022-08-24T07:19:44.230Z,23.16
2022-08-24T07:22:46.983Z,23.34
2022-08-24T07:25:54.160Z,23.50
2022-08-24T07:29:05.079Z,23.68
2022-08-24T07:32:10.251Z,23.84
2022-08-24T07:35:13.089Z,23.80
2022-08-24T07:38:15.856Z,24.02
2022-08-24T07:41:43.415Z,24.17
2022-08-24T07:44:41.414Z,24.25
2022-08-24T07:47:54.601Z,24.40
2022-08-24T07:50:59.602Z,24.59
2022-08-24T07:54:03.793Z,24.69
2022-08-24T07:57:09.941Z,24.81
2022-08-24T08:00:15.254Z,24.80
2022-08-24T08:03:19.412Z,24.99
2022-08-24T08:06:22.170Z,25.16
2022-08-24T08:09:24.879Z,25.26
2022-08-24T08:12:27.564Z,25.30
2022-08-24T08:15:30.364Z,25.43
2022-08-24T08:18:34.550Z,25.56
2022-08-24T08:22:00.537Z,25.64
2022-08-24T08:25:03.864Z,25.79
2022-08-24T08:28:18.630Z,25.84
2022-08-24T08:31:29.135Z,25.99
2022-08-24T08:34:38.258Z,26.33
2022-08-24T08:37:41.427Z,26.37
2022-08-24T08:40:59.632Z,26.70
2022-08-24T08:44:04.806Z,26.86
2022-08-24T08:47:18.606Z,26.88
2022-08-24T08:50:26.354Z,26.89
2022-08-24T08:54:11.087Z,26.95
2022-08-24T08:57:29.512Z,26.97
2022-08-24T09:00:44.619Z,26.96
2022-08-24T09:04:09.588Z,27.28
2022-08-24T09:07:17.736Z,27.51
2022-08-24T09:10:31.969Z,27.61
2022-08-24T09:13:46.326Z,27.59
2022-08-24T09:17:00.897Z,27.50
2022-08-24T09:20:32.839Z,27.65
2022-08-24T09:23:47.675Z,27.81
2022-08-24T09:26:57.987Z,27.86
2022-08-24T09:30:09.201Z,27.93
2022-08-24T09:33:19.937Z,28.14
2022-08-24T09:36:31.413Z,28.37
2022-08-24T09:39:50.136Z,28.31
2022-08-24T09:43:06.918Z,28.25
2022-08-24T09:46:28.111Z,28.57
2022-08-24T09:50:06.981Z,28.70
2022-08-24T09:53:26.554Z,28.78
2022-08-24T09:56:39.268Z,28.92
2022-08-24T10:00:10.025Z,28.94
2022-08-24T10:03:26.276Z,29.00
2022-08-24T10:06:46.611Z,29.01
2022-08-24T10:09:57.512Z,29.21
2022-08-24T10:13:10.542Z,28.84
2022-08-24T10:16:22.687Z,29.17
2022-08-24T10:19:40.048Z,29.59
2022-08-24T10:23:04.795Z,29.56
2022-08-24T10:26:14.198Z,29.44
2022-08-24T10:29:32.777Z,29.69
2022-08-24T10:32:47.611Z,29.78
2022-08-24T10:36:09.628Z,29.84
2022-08-24T10:39:43.351Z,29.95
2022-08-24T10:43:27.198Z,30.01
2022-08-24T10:46:38.246Z,30.00
2022-08-24T10:50:31.144Z,30.06
2022-08-24T10:53:34.764Z,30.41
2022-08-24T10:56:42.483Z,30.48
2022-08-24T10:59:52.332Z,30.41
2022-08-24T11:03:09.274Z,30.65
2022-08-24T11:06:16.733Z,30.54
2022-08-24T11:09:20.028Z,30.74
2022-08-24T11:12:27.191Z,30.67
2022-08-24T11:15:30.705Z,30.63
2022-08-24T11:18:50.491Z,30.05
2022-08-24T11:21:55.134Z,30.18
2022-08-24T11:25:00.418Z,30.78
2022-08-24T11:28:06.158Z,31.08
2022-08-24T11:31:13.362Z,31.36
2022-08-24T11:34:21.848Z,31.10
2022-08-24T11:37:28.078Z,31.35
2022-08-24T11:40:37.576Z,31.52
2022-08-24T11:43:54.159Z,31.65
2022-08-24T11:47:02.716Z,31.91
2022-08-24T11:50:15.509Z,32.12
2022-08-24T11:53:26.046Z,32.13
2022-08-24T11:56:33.381Z,32.29
2022-08-24T11:59:45.398Z,31.95
2022-08-24T12:02:56.563Z,31.97
2022-08-24T12:06:06.752Z,32.55
2022-08-24T12:09:17.438Z,32.31
2022-08-24T12:12:23.912Z,32.53
2022-08-24T12:15:38.808Z,33.00
2022-08-24T12:18:56.984Z,32.98
2022-08-24T12:22:04.090Z,33.18
2022-08-24T12:25:30.797Z,33.47
2022-08-24T12:28:38.506Z,33.76
2022-08-24T12:31:45.244Z,33.83
2022-08-24T12:34:57.972Z,33.86
2022-08-24T12:38:05.571Z,34.07
2022-08-24T12:41:17.559Z,33.92
2022-08-24T12:44:25.790Z,34.37
2022-08-24T12:47:36.742Z,34.53
2022-08-24T12:50:46.516Z,34.55
2022-08-24T12:54:06.919Z,36.02
2022-08-24T12:57:28.432Z,39.05
2022-08-24T13:00:37.311Z,41.05
2022-08-24T13:03:42.070Z,42.71
2022-08-24T13:06:48.556Z,43.71
2022-08-24T13:10:11.963Z,46.02
2022-08-24T13:13:21.170Z,49.30
2022-08-24T13:16:47.609Z,49.92
2022-08-24T13:20:18.558Z,50.11
2022-08-24T13:23:22.706Z,51.13
2022-08-24T13:26:27.722Z,49.16
2022-08-24T13:29:34.952Z,51.76
2022-08-24T13:32:40.818Z,51.55
2022-08-24T13:35:57.323Z,54.07
2022-08-24T13:39:08.112Z,51.46
2022-08-24T13:42:29.910Z,54.67
2022-08-24T13:45:34.365Z,54.07
2022-08-24T13:48:48.319Z,54.09
2022-08-24T13:51:54.364Z,53.11
2022-08-24T13:55:23.271Z,53.45
2022-08-24T13:58:36.366Z,54.27
2022-08-24T14:01:51.118Z,56.34
2022-08-24T14:04:56.690Z,54.74
2022-08-24T14:08:11.066Z,55.04
2022-08-24T14:11:19.194Z,55.28
2022-08-24T14:14:34.727Z,54.94
2022-08-24T14:17:55.389Z,55.37
2022-08-24T14:21:06.797Z,56.26
2022-08-24T14:24:12.712Z,56.62
2022-08-24T14:27:38.607Z,57.60
2022-08-24T14:30:46.807Z,57.39
2022-08-24T14:34:01.724Z,55.09
2022-08-24T14:37:06.126Z,52.47
2022-08-24T14:40:17.429Z,54.76
2022-08-24T14:43:30.088Z,57.11
2022-08-24T14:46:40.677Z,53.83
2022-08-24T14:49:48.301Z,53.99
2022-08-24T14:53:01.451Z,53.71
2022-08-24T14:56:11.824Z,54.39
2022-08-24T14:59:22.032Z,53.00
2022-08-24T15:03:19.531Z,53.63
2022-08-24T15:06:27.860Z,55.29
2022-08-24T15:09:35.586Z,57.39
2022-08-24T15:12:39.765Z,55.69
2022-08-24T15:15:46.323Z,55.23
2022-08-24T15:18:55.501Z,55.81
2022-08-24T15:22:03.789Z,53.32
2022-08-24T15:25:12.485Z,53.97
2022-08-24T15:28:23.929Z,54.70
2022-08-24T15:31:27.544Z,52.68
2022-08-24T15:34:42.799Z,51.85
2022-08-24T15:37:45.671Z,52.86
2022-08-24T15:40:49.129Z,51.63
2022-08-24T15:43:59.740Z,50.88
2022-08-24T15:47:05.717Z,52.38
2022-08-24T15:50:22.210Z,53.65
2022-08-24T15:53:34.603Z,53.94
2022-08-24T15:56:42.705Z,54.39
2022-08-24T15:59:48.535Z,51.88
2022-08-24T16:02:50.274Z,51.63
2022-08-24T16:05:56.313Z,52.43
2022-08-24T16:09:01.942Z,52.42
2022-08-24T16:12:07.788Z,53.20
2022-08-24T16:15:16.950Z,50.79
2022-08-24T16:18:21.420Z,49.97
2022-08-24T16:21:34.411Z,47.77
2022-08-24T16:24:39.215Z,45.85
2022-08-24T16:27:58.083Z,43.48
2022-08-24T16:31:07.758Z,44.89
2022-08-24T16:34:19.431Z,44.25
2022-08-24T16:37:25.155Z,43.78
2022-08-24T16:40:28.134Z,43.07
2022-08-24T16:43:31.678Z,40.35
2022-08-24T16:46:34.314Z,39.05
2022-08-24T16:49:39.230Z,39.40
2022-08-24T16:52:43.296Z,36.82
2022-08-24T16:55:47.982Z,35.04
2022-08-24T16:58:50.900Z,34.17
2022-08-24T17:01:53.812Z,33.73
2022-08-24T17:04:56.827Z,33.43
2022-08-24T17:08:01.787Z,32.98
2022-08-24T17:11:04.856Z,32.18
2022-08-24T17:14:07.959Z,31.81
2022-08-24T17:17:14.229Z,31.63
2022-08-24T17:20:16.987Z,31.45
2022-08-24T17:23:21.471Z,31.08
2022-08-24T17:26:24.369Z,30.90
2022-08-24T17:29:27.295Z,30.84
2022-08-24T17:32:30.277Z,30.69
2022-08-24T17:35:33.237Z,30.45
2022-08-24T17:38:42.810Z,30.23
2022-08-24T17:41:45.459Z,30.04
2022-08-24T17:44:48.446Z,29.78
2022-08-24T17:47:52.466Z,29.57
2022-08-24T17:50:55.539Z,29.35
2022-08-24T17:53:59.555Z,29.16
2022-08-24T17:57:02.537Z,29.02
2022-08-24T18:00:06.068Z,28.80
2022-08-24T18:03:12.305Z,28.67
2022-08-24T18:06:18.110Z,28.53
2022-08-24T18:09:29.484Z,28.36
2022-08-24T18:12:32.862Z,28.08
2022-08-24T18:15:36.377Z,27.91
2022-08-24T18:18:39.745Z,27.69
2022-08-24T18:21:42.725Z,27.53
2022-08-24T18:24:46.850Z,27.41
2022-08-24T18:27:52.603Z,27.31
2022-08-24T18:30:55.286Z,27.15
2022-08-24T18:33:57.946Z,26.94
2022-08-24T18:37:01.259Z,26.82
2022-08-24T18:40:06.509Z,26.65
2022-08-24T18:43:09.936Z,26.47
2022-08-24T18:46:13.153Z,26.34
2022-08-24T18:49:15.887Z,26.23
2022-08-24T18:52:19.401Z,26.15
2022-08-24T18:55:24.366Z,26.02
2022-08-24T18:58:27.031Z,25.88
2022-08-24T19:01:31.822Z,25.70
2022-08-24T19:04:35.353Z,25.58
2022-08-24T19:07:41.056Z,25.43
2022-08-24T19:10:45.825Z,25.30
2022-08-24T19:13:48.510Z,25.19
2022-08-24T19:16:51.145Z,25.12
2022-08-24T19:19:55.396Z,25.09
2022-08-24T19:23:01.606Z,25.06
2022-08-24T19:26:06.178Z,24.98
2022-08-24T19:29:08.949Z,24.99
2022-08-24T19:32:13.893Z,24.98
2022-08-24T19:35:25.115Z,24.92
2022-08-24T19:38:28.021Z,24.87
2022-08-24T19:41:36.897Z,24.82
2022-08-24T19:44:57.876Z,24.81
2022-08-24T19:48:00.674Z,24.72
2022-08-24T19:51:03.520Z,24.63
2022-08-24T19:54:07.009Z,24.56
2022-08-24T19:57:31.640Z,24.58
2022-08-24T20:00:39.182Z,24.48
2022-08-24T20:03:42.273Z,24.47
2022-08-24T20:06:44.934Z,24.54
2022-08-24T20:09:47.852Z,24.42
2022-08-24T20:12:52.053Z,24.30
2022-08-24T20:15:55.572Z,24.23
2022-08-24T20:19:00.065Z,24.13
2022-08-24T20:22:02.820Z,24.14
2022-08-24T20:25:17.179Z,24.04
2022-08-24T20:28:29.768Z,23.97
2022-08-24T20:31:33.986Z,24.05
2022-08-24T20:34:36.787Z,24.02
2022-08-24T20:37:41.366Z,23.95
2022-08-24T20:40:43.945Z,23.84
2022-08-24T20:43:48.092Z,23.79
2022-08-24T20:46:51.097Z,23.76
2022-08-24T20:49:53.927Z,23.69
2022-08-24T20:52:56.739Z,23.66
2022-08-24T20:56:01.697Z,23.63
2022-08-24T20:59:08.969Z,23.64
2022-08-24T21:02:11.798Z,23.49
2022-08-24T21:05:14.503Z,23.52
2022-08-24T21:08:17.429Z,23.41
2022-08-24T21:11:21.168Z,23.42
2022-08-24T21:14:25.289Z,23.38
2022-08-24T21:17:28.076Z,23.25
2022-08-24T21:20:31.251Z,23.14
2022-08-24T21:23:34.329Z,23.17
2022-08-24T21:26:36.939Z,23.10
2022-08-24T21:29:41.051Z,23.08
2022-08-24T21:33:01.307Z,23.01
2022-08-24T21:36:04.463Z,23.07
2022-08-24T21:39:10.754Z,23.13
2022-08-24T21:42:14.199Z,23.09
2022-08-24T21:45:21.061Z,22.96
2022-08-24T21:48:23.894Z,22.82
2022-08-24T21:51:26.584Z,22.68
2022-08-24T21:54:29.311Z,22.63
2022-08-24T21:57:31.995Z,22.56
2022-08-24T22:00:36.161Z,22.47
2022-08-24T22:03:40.405Z,22.46
2022-08-24T22:06:43.285Z,22.39
2022-08-24T22:09:46.037Z,22.38
2022-08-24T22:12:48.933Z,22.29
2022-08-24T22:15:52.992Z,22.31
2022-08-24T22:18:55.681Z,22.25
2022-08-24T22:21:58.227Z,22.13
2022-08-24T22:25:01.101Z,22.13
2022-08-24T22:28:04.207Z,22.13
2022-08-24T22:31:18.088Z,22.12
2022-08-24T22:34:21.352Z,22.12
2022-08-24T22:37:24.241Z,22.15
2022-08-24T22:40:27.176Z,22.11
2022-08-24T22:43:51.206Z,22.03
2022-08-24T22:46:57.192Z,21.95
2022-08-24T22:50:00.677Z,21.89
2022-08-24T22:53:03.867Z,21.78
2022-08-24T22:56:14.942Z,21.71
2022-08-24T22:59:20.605Z,21.68
2022-08-24T23:02:24.866Z,21.57
2022-08-24T23:05:27.703Z,21.50
2022-08-24T23:08:30.374Z,21.41
2022-08-24T23:11:33.257Z,21.34
2022-08-24T23:14:35.996Z,21.30
2022-08-24T23:17:40.018Z,21.39
2022-08-24T23:20:41.630Z,21.38
2022-08-24T23:23:44.478Z,21.44
2022-08-24T23:26:48.900Z,21.40
2022-08-24T23:29:51.770Z,21.27
2022-08-24T23:32:55.817Z,21.21
2022-08-24T23:35:58.550Z,21.06
2022-08-24T23:39:04.984Z,21.06
2022-08-24T23:42:08.074Z,21.00
2022-08-24T23:45:12.247Z,21.06
2022-08-24T23:48:16.714Z,21.02
2022-08-24T23:51:20.175Z,21.12
2022-08-24T23:54:25.819Z,21.07
2022-08-24T23:57:29.292Z,21.07
